Thunder radar more information blitzortung!


Radar de pluja more information rain snow radar


Visita la nostra xarxa de llocs de meteo:

Template documentation
and downloads

And another site



No particular awareness of the weather is required.    There are no Weather-warnings

Pagina Historial Weather Underground text

Diari Resum May 5, 2017 Unitats:  Tant    Imperial   Mètric
« Previous Dia
SegĂźent Dia »
Diari Setmana Mensual Anual Personalitzada
  Maxima: Minima: Media:
Temperatura: 71.4 °F /  21.9 °C 53.4 °F /  11.9 °C 63.3 °F /  17.4 °C
Punt de rosada: 56.1 °F /  13.4 °C 44.2 °F /  6.8 °C 48.7 °F /  9.3 °C
Humitat: 84 % 44 % 60 %
Wind Speed: 17.3 mph /  27.8 km/h - 6 mph /  9.7 km/h
RĂ fegues de vent: 17.3 mph /  27.8 km/h - -
Vent:- - East
Pression baro: 30 in /  1015.8 hPa 29.8 in /  1009.0 hPa -
Precipitacions: 0 in /  0.0 mm    
Historical Graphs
 
 
Dades de taula per May 5, 2017
Temps Temperatura Punt de rosada Pression baro Vent Wind Speed RĂ fegues de vent Humitat Rainfall Rate (Hourly)
00:01 57.9 °F /  14.4 °C 51.8 °F /  11.0 °C 30 in /  1015.8 hPa NNE 2.3 mph /  3.7 km/h 2.3 mph /  3.7 km/h 80 % 0 in /  0.0 mm
00:05 54.7 °F /  12.6 °C 49.6 °F /  9.8 °C 29.9 in /  1013.8 hPa NE 2 mph /  3.2 km/h 2 mph /  3.2 km/h 83 % 0 in /  0.0 mm
00:06 57.9 °F /  14.4 °C 52.2 °F /  11.2 °C 30 in /  1015.8 hPa NE 2.3 mph /  3.7 km/h 2.3 mph /  3.7 km/h 81 % 0 in /  0.0 mm
00:11 57.9 °F /  14.4 °C 51.8 °F /  11.0 °C 30 in /  1015.8 hPa NNE 2.3 mph /  3.7 km/h 2.3 mph /  3.7 km/h 80 % 0 in /  0.0 mm
00:15 54.7 °F /  12.6 °C 49.6 °F /  9.8 °C 29.9 in /  1013.8 hPa NE 2 mph /  3.2 km/h 3 mph /  4.8 km/h 83 % 0 in /  0.0 mm
00:25 54.7 °F /  12.6 °C 49.6 °F /  9.8 °C 29.9 in /  1013.8 hPa ENE 3 mph /  4.8 km/h 3 mph /  4.8 km/h 83 % 0 in /  0.0 mm
00:35 54.7 °F /  12.6 °C 49.6 °F /  9.8 °C 29.9 in /  1013.8 hPa ENE 2 mph /  3.2 km/h 3 mph /  4.8 km/h 83 % 0 in /  0.0 mm
00:45 54.5 °F /  12.5 °C 49.5 °F /  9.7 °C 29.9 in /  1013.8 hPa ENE 1 mph /  1.6 km/h 3 mph /  4.8 km/h 83 % 0 in /  0.0 mm
00:55 54.3 °F /  12.4 °C 49.3 °F /  9.6 °C 29.9 in /  1013.8 hPa NE 2 mph /  3.2 km/h 3 mph /  4.8 km/h 83 % 0 in /  0.0 mm
01:05 54.3 °F /  12.4 °C 49.3 °F /  9.6 °C 29.9 in /  1012.8 hPa NE 2 mph /  3.2 km/h 3 mph /  4.8 km/h 83 % 0 in /  0.0 mm
01:15 54 °F /  12.2 °C 49.3 °F /  9.6 °C 29.9 in /  1012.8 hPa NE 2 mph /  3.2 km/h 3 mph /  4.8 km/h 84 % 0 in /  0.0 mm
01:25 53.8 °F /  12.1 °C 49.1 °F /  9.5 °C 29.9 in /  1013.8 hPa NNE 2 mph /  3.2 km/h 3 mph /  4.8 km/h 84 % 0 in /  0.0 mm
01:35 53.6 °F /  12.0 °C 48.9 °F /  9.4 °C 29.9 in /  1013.8 hPa NNE 3 mph /  4.8 km/h 4 mph /  6.4 km/h 84 % 0 in /  0.0 mm
01:45 53.6 °F /  12.0 °C 48.9 °F /  9.4 °C 29.9 in /  1013.8 hPa NE 3 mph /  4.8 km/h 4 mph /  6.4 km/h 84 % 0 in /  0.0 mm
01:55 53.6 °F /  12.0 °C 48.9 °F /  9.4 °C 29.9 in /  1013.8 hPa NE 2 mph /  3.2 km/h 3 mph /  4.8 km/h 84 % 0 in /  0.0 mm
02:05 53.4 °F /  11.9 °C 48.7 °F /  9.3 °C 30 in /  1014.8 hPa NE 1 mph /  1.6 km/h 3 mph /  4.8 km/h 84 % 0 in /  0.0 mm
02:15 53.8 °F /  12.1 °C 49.1 °F /  9.5 °C 30 in /  1014.8 hPa NE 2 mph /  3.2 km/h 2 mph /  3.2 km/h 84 % 0 in /  0.0 mm
02:25 53.8 °F /  12.1 °C 49.1 °F /  9.5 °C 30 in /  1014.8 hPa NE 2 mph /  3.2 km/h 3 mph /  4.8 km/h 84 % 0 in /  0.0 mm
02:35 54 °F /  12.2 °C 49.3 °F /  9.6 °C 30 in /  1014.8 hPa NE 3 mph /  4.8 km/h 5 mph /  8.0 km/h 84 % 0 in /  0.0 mm
02:45 54 °F /  12.2 °C 49.3 °F /  9.6 °C 30 in /  1014.8 hPa NE 2 mph /  3.2 km/h 3 mph /  4.8 km/h 84 % 0 in /  0.0 mm
02:55 54.1 °F /  12.3 °C 49.5 °F /  9.7 °C 30 in /  1014.8 hPa Calm   3 mph /  4.8 km/h 84 % 0 in /  0.0 mm
03:05 54.1 °F /  12.3 °C 49.5 °F /  9.7 °C 30 in /  1014.8 hPa NE 2 mph /  3.2 km/h 3 mph /  4.8 km/h 84 % 0 in /  0.0 mm
03:15 54.3 °F /  12.4 °C 49.6 °F /  9.8 °C 30 in /  1014.8 hPa NNE 3 mph /  4.8 km/h 4 mph /  6.4 km/h 84 % 0 in /  0.0 mm
03:25 54.7 °F /  12.6 °C 49.8 °F /  9.9 °C 30 in /  1014.8 hPa NNE 5 mph /  8.0 km/h 6 mph /  9.7 km/h 84 % 0 in /  0.0 mm
03:35 55.2 °F /  12.9 °C 50.5 °F /  10.3 °C 30 in /  1014.8 hPa NE 3 mph /  4.8 km/h 8 mph /  12.9 km/h 84 % 0 in /  0.0 mm
03:45 55.9 °F /  13.3 °C 51.3 °F /  10.7 °C 30 in /  1014.8 hPa ENE 3 mph /  4.8 km/h 6 mph /  9.7 km/h 84 % 0 in /  0.0 mm
03:55 56.3 °F /  13.5 °C 51.3 °F /  10.7 °C 30 in /  1014.8 hPa NE 5 mph /  8.0 km/h 5 mph /  8.0 km/h 83 % 0 in /  0.0 mm
04:05 56.5 °F /  13.6 °C 51.1 °F /  10.6 °C 29.9 in /  1013.8 hPa ENE 5 mph /  8.0 km/h 7 mph /  11.3 km/h 82 % 0 in /  0.0 mm
04:15 56.8 °F /  13.8 °C 51.4 °F /  10.8 °C 29.9 in /  1013.8 hPa East 3 mph /  4.8 km/h 4 mph /  6.4 km/h 82 % 0 in /  0.0 mm
04:25 57 °F /  13.9 °C 51.6 °F /  10.9 °C 30 in /  1014.8 hPa East 5 mph /  8.0 km/h 7 mph /  11.3 km/h 82 % 0 in /  0.0 mm
04:35 57.2 °F /  14.0 °C 51.4 °F /  10.8 °C 29.9 in /  1013.8 hPa ENE 2 mph /  3.2 km/h 5 mph /  8.0 km/h 81 % 0 in /  0.0 mm
04:45 57.6 °F /  14.2 °C 51.8 °F /  11.0 °C 29.9 in /  1013.8 hPa ENE 5 mph /  8.0 km/h 7 mph /  11.3 km/h 81 % 0 in /  0.0 mm
04:55 58.1 °F /  14.5 °C 52 °F /  11.1 °C 30 in /  1014.8 hPa ENE 5 mph /  8.0 km/h 6 mph /  9.7 km/h 80 % 0 in /  0.0 mm
05:05 58.6 °F /  14.8 °C 52.2 °F /  11.2 °C 29.9 in /  1013.8 hPa NE 5 mph /  8.0 km/h 8 mph /  12.9 km/h 79 % 0 in /  0.0 mm
05:15 59.5 °F /  15.3 °C 53.1 °F /  11.7 °C 29.9 in /  1013.8 hPa NE 5 mph /  8.0 km/h 6 mph /  9.7 km/h 79 % 0 in /  0.0 mm
05:25 60.3 °F /  15.7 °C 53.4 °F /  11.9 °C 30 in /  1014.8 hPa ENE 5 mph /  8.0 km/h 6 mph /  9.7 km/h 78 % 0 in /  0.0 mm
05:35 60.8 °F /  16.0 °C 53.2 °F /  11.8 °C 30 in /  1014.8 hPa ENE 5 mph /  8.0 km/h 8 mph /  12.9 km/h 76 % 0 in /  0.0 mm
10:42 60.8 °F /  16.0 °C 52.9 °F /  11.6 °C 30 in /  1014.8 hPa NNE 4.6 mph /  7.4 km/h 4.6 mph /  7.4 km/h 75 % 0 in /  0.0 mm
10:47 61 °F /  16.1 °C 53.1 °F /  11.7 °C 30 in /  1014.8 hPa East 4.6 mph /  7.4 km/h 4.6 mph /  7.4 km/h 75 % 0 in /  0.0 mm
10:52 61.2 °F /  16.2 °C 52.9 °F /  11.6 °C 30 in /  1014.8 hPa ESE 5.8 mph /  9.3 km/h 5.8 mph /  9.3 km/h 74 % 0 in /  0.0 mm
10:57 61.3 °F /  16.3 °C 53.1 °F /  11.7 °C 30 in /  1014.8 hPa ENE 4.6 mph /  7.4 km/h 4.6 mph /  7.4 km/h 74 % 0 in /  0.0 mm
11:02 61.9 °F /  16.6 °C 53.1 °F /  11.7 °C 30 in /  1014.8 hPa ESE 5.9 mph /  9.5 km/h 5.9 mph /  9.5 km/h 73 % 0 in /  0.0 mm
11:07 62.8 °F /  17.1 °C 52.5 °F /  11.4 °C 30 in /  1014.8 hPa ENE 3.5 mph /  5.6 km/h 3.5 mph /  5.6 km/h 69 % 0 in /  0.0 mm
11:12 62.4 °F /  16.9 °C 51.6 °F /  10.9 °C 30 in /  1014.8 hPa SE 5.8 mph /  9.3 km/h 5.8 mph /  9.3 km/h 68 % 0 in /  0.0 mm
11:17 63.1 °F /  17.3 °C 52.3 °F /  11.3 °C 30 in /  1014.8 hPa SW 2.3 mph /  3.7 km/h 2.3 mph /  3.7 km/h 68 % 0 in /  0.0 mm
11:22 64 °F /  17.8 °C 54.1 °F /  12.3 °C 30 in /  1014.8 hPa West 2.4 mph /  3.9 km/h 2.4 mph /  3.9 km/h 70 % 0 in /  0.0 mm
11:27 64.8 °F /  18.2 °C 54.3 °F /  12.4 °C 30 in /  1015.8 hPa West 3.5 mph /  5.6 km/h 3.5 mph /  5.6 km/h 69 % 0 in /  0.0 mm
11:32 64.9 °F /  18.3 °C 54.5 °F /  12.5 °C 30 in /  1015.8 hPa WSW 2.3 mph /  3.7 km/h 2.3 mph /  3.7 km/h 69 % 0 in /  0.0 mm
11:37 65.3 °F /  18.5 °C 54.9 °F /  12.7 °C 30 in /  1015.8 hPa NNW 2.3 mph /  3.7 km/h 2.3 mph /  3.7 km/h 69 % 0 in /  0.0 mm
11:42 66.2 °F /  19.0 °C 54.5 °F /  12.5 °C 30 in /  1015.8 hPa ESE 1.4 mph /  2.3 km/h 1.4 mph /  2.3 km/h 66 % 0 in /  0.0 mm
11:47 67.3 °F /  19.6 °C 55.6 °F /  13.1 °C 30 in /  1015.8 hPa SW 2.3 mph /  3.7 km/h 2.3 mph /  3.7 km/h 66 % 0 in /  0.0 mm
11:52 67.5 °F /  19.7 °C 56.1 °F /  13.4 °C 30 in /  1015.8 hPa WSW 3.3 mph /  5.3 km/h 3.3 mph /  5.3 km/h 67 % 0 in /  0.0 mm
11:57 67.8 °F /  19.9 °C 55.6 °F /  13.1 °C 30 in /  1015.8 hPa SSW 2.3 mph /  3.7 km/h 2.3 mph /  3.7 km/h 65 % 0 in /  0.0 mm
12:02 67.8 °F /  19.9 °C 55.2 °F /  12.9 °C 30 in /  1015.8 hPa SW 2.3 mph /  3.7 km/h 2.3 mph /  3.7 km/h 64 % 0 in /  0.0 mm
12:07 67.3 °F /  19.6 °C 54.3 °F /  12.4 °C 30 in /  1015.8 hPa ENE 2 mph /  3.2 km/h 2 mph /  3.2 km/h 63 % 0 in /  0.0 mm
12:12 66.4 °F /  19.1 °C 53.1 °F /  11.7 °C 30 in /  1014.8 hPa ESE 3.5 mph /  5.6 km/h 3.5 mph /  5.6 km/h 62 % 0 in /  0.0 mm
12:17 66.9 °F /  19.4 °C 53.4 °F /  11.9 °C 30 in /  1014.8 hPa East 1.2 mph /  1.9 km/h   62 % 0 in /  0.0 mm
12:22 66.6 °F /  19.2 °C 53.1 °F /  11.7 °C 30 in /  1014.8 hPa NNE 3.5 mph /  5.6 km/h 3.5 mph /  5.6 km/h 62 % 0 in /  0.0 mm
12:27 66.2 °F /  19.0 °C 52.3 °F /  11.3 °C 30 in /  1014.8 hPa ESE 3.5 mph /  5.6 km/h 3.5 mph /  5.6 km/h 61 % 0 in /  0.0 mm
12:32 66.2 °F /  19.0 °C 52.9 °F /  11.6 °C 30 in /  1014.8 hPa East 2.4 mph /  3.9 km/h 2.4 mph /  3.9 km/h 62 % 0 in /  0.0 mm
12:37 65.7 °F /  18.7 °C 52.3 °F /  11.3 °C 30 in /  1014.8 hPa ESE 2.4 mph /  3.9 km/h 2.4 mph /  3.9 km/h 62 % 0 in /  0.0 mm
12:42 66 °F /  18.9 °C 53.1 °F /  11.7 °C 30 in /  1014.8 hPa East 2.9 mph /  4.7 km/h 2.9 mph /  4.7 km/h 63 % 0 in /  0.0 mm
12:47 66 °F /  18.9 °C 53.1 °F /  11.7 °C 30 in /  1014.8 hPa NNE 4 mph /  6.4 km/h 4 mph /  6.4 km/h 63 % 0 in /  0.0 mm
12:52 66.4 °F /  19.1 °C 53.1 °F /  11.7 °C 30 in /  1014.8 hPa ENE 4.6 mph /  7.4 km/h 4.6 mph /  7.4 km/h 62 % 0 in /  0.0 mm
12:57 66.4 °F /  19.1 °C 53.1 °F /  11.7 °C 30 in /  1014.8 hPa East 8.5 mph /  13.7 km/h 8.5 mph /  13.7 km/h 62 % 0 in /  0.0 mm
13:02 66.4 °F /  19.1 °C 53.1 °F /  11.7 °C 30 in /  1014.8 hPa ENE 5.8 mph /  9.3 km/h 5.8 mph /  9.3 km/h 62 % 0 in /  0.0 mm
13:07 66.6 °F /  19.2 °C 52.7 °F /  11.5 °C 30 in /  1014.8 hPa ENE 5.8 mph /  9.3 km/h 5.8 mph /  9.3 km/h 61 % 0 in /  0.0 mm
13:13 67.3 °F /  19.6 °C 53.4 °F /  11.9 °C 29.9 in /  1012.8 hPa East 8.1 mph /  13.0 km/h 8.1 mph /  13.0 km/h 61 % 0 in /  0.0 mm
13:18 67.6 °F /  19.8 °C 53.2 °F /  11.8 °C 29.9 in /  1012.8 hPa ENE 9.2 mph /  14.8 km/h 9.2 mph /  14.8 km/h 60 % 0 in /  0.0 mm
13:23 68 °F /  20.0 °C 52.2 °F /  11.2 °C 29.9 in /  1012.8 hPa NNE 9.2 mph /  14.8 km/h 9.2 mph /  14.8 km/h 57 % 0 in /  0.0 mm
13:28 67.5 °F /  19.7 °C 52.2 °F /  11.2 °C 29.9 in /  1012.8 hPa ESE 10.4 mph /  16.7 km/h 10.4 mph /  16.7 km/h 58 % 0 in /  0.0 mm
13:33 67.8 °F /  19.9 °C 51.4 °F /  10.8 °C 29.9 in /  1012.8 hPa East 8.1 mph /  13.0 km/h 8.1 mph /  13.0 km/h 56 % 0 in /  0.0 mm
13:38 67.5 °F /  19.7 °C 49.3 °F /  9.6 °C 29.9 in /  1012.8 hPa ESE 13.8 mph /  22.2 km/h 13.8 mph /  22.2 km/h 52 % 0 in /  0.0 mm
13:43 68 °F /  20.0 °C 50.2 °F /  10.1 °C 29.9 in /  1012.8 hPa ESE 8.1 mph /  13.0 km/h 8.1 mph /  13.0 km/h 53 % 0 in /  0.0 mm
13:48 68.5 °F /  20.3 °C 50.2 °F /  10.1 °C 29.9 in /  1012.8 hPa SE 10.4 mph /  16.7 km/h 10.4 mph /  16.7 km/h 52 % 0 in /  0.0 mm
13:53 68.7 °F /  20.4 °C 49.3 °F /  9.6 °C 29.9 in /  1012.8 hPa ESE 10.4 mph /  16.7 km/h 10.4 mph /  16.7 km/h 50 % 0 in /  0.0 mm
13:58 68.9 °F /  20.5 °C 49.5 °F /  9.7 °C 29.9 in /  1012.8 hPa SE 11.5 mph /  18.5 km/h 11.5 mph /  18.5 km/h 50 % 0 in /  0.0 mm
14:03 69.6 °F /  20.9 °C 50.7 °F /  10.4 °C 29.9 in /  1012.8 hPa East 8.1 mph /  13.0 km/h 8.1 mph /  13.0 km/h 51 % 0 in /  0.0 mm
14:08 69.8 °F /  21.0 °C 50.4 °F /  10.2 °C 29.9 in /  1012.8 hPa NNE 5.8 mph /  9.3 km/h 5.8 mph /  9.3 km/h 50 % 0 in /  0.0 mm
14:13 70.5 °F /  21.4 °C 51.1 °F /  10.6 °C 29.8 in /  1010.7 hPa ENE 6.9 mph /  11.1 km/h 6.9 mph /  11.1 km/h 50 % 0 in /  0.0 mm
14:18 70.7 °F /  21.5 °C 51.1 °F /  10.6 °C 29.8 in /  1010.7 hPa East 5.8 mph /  9.3 km/h 5.8 mph /  9.3 km/h 50 % 0 in /  0.0 mm
14:23 71.4 °F /  21.9 °C 51.8 °F /  11.0 °C 29.8 in /  1010.7 hPa ENE 9.2 mph /  14.8 km/h 9.2 mph /  14.8 km/h 50 % 0 in /  0.0 mm
14:28 71.2 °F /  21.8 °C 51.6 °F /  10.9 °C 29.9 in /  1012.8 hPa ESE 6.9 mph /  11.1 km/h 6.9 mph /  11.1 km/h 50 % 0 in /  0.0 mm
14:33 70.7 °F /  21.5 °C 50.5 °F /  10.3 °C 29.9 in /  1012.8 hPa SE 11.5 mph /  18.5 km/h 11.5 mph /  18.5 km/h 49 % 0 in /  0.0 mm
14:38 71.4 °F /  21.9 °C 51.3 °F /  10.7 °C 29.9 in /  1012.8 hPa ESE 10.2 mph /  16.4 km/h 10.2 mph /  16.4 km/h 49 % 0 in /  0.0 mm
14:43 71.2 °F /  21.8 °C 51.1 °F /  10.6 °C 29.9 in /  1011.7 hPa ESE 6.9 mph /  11.1 km/h 6.9 mph /  11.1 km/h 49 % 0 in /  0.0 mm
14:48 71.2 °F /  21.8 °C 50.5 °F /  10.3 °C 29.9 in /  1011.7 hPa ESE 8.1 mph /  13.0 km/h 8.1 mph /  13.0 km/h 48 % 0 in /  0.0 mm
14:53 70.7 °F /  21.5 °C 50 °F /  10.0 °C 29.9 in /  1011.7 hPa ENE 8.1 mph /  13.0 km/h 8.1 mph /  13.0 km/h 48 % 0 in /  0.0 mm
14:58 71.1 °F /  21.7 °C 49.8 °F /  9.9 °C 29.9 in /  1011.7 hPa ENE 12.7 mph /  20.4 km/h 12.7 mph /  20.4 km/h 47 % 0 in /  0.0 mm
15:03 70.3 °F /  21.3 °C 48.6 °F /  9.2 °C 29.9 in /  1011.7 hPa ESE 15 mph /  24.1 km/h 15 mph /  24.1 km/h 46 % 0 in /  0.0 mm
15:08 70 °F /  21.1 °C 48.7 °F /  9.3 °C 29.9 in /  1011.7 hPa East 10.4 mph /  16.7 km/h 10.4 mph /  16.7 km/h 47 % 0 in /  0.0 mm
15:13 69.6 °F /  20.9 °C 47.8 °F /  8.8 °C 29.9 in /  1011.7 hPa ESE 13.8 mph /  22.2 km/h 13.8 mph /  22.2 km/h 46 % 0 in /  0.0 mm
15:18 69.4 °F /  20.8 °C 47.8 °F /  8.8 °C 29.9 in /  1011.7 hPa ENE 17.3 mph /  27.8 km/h 17.3 mph /  27.8 km/h 46 % 0 in /  0.0 mm
15:23 70.3 °F /  21.3 °C 48.6 °F /  9.2 °C 29.9 in /  1011.7 hPa East 5.8 mph /  9.3 km/h 5.8 mph /  9.3 km/h 46 % 0 in /  0.0 mm
15:28 69.8 °F /  21.0 °C 46.9 °F /  8.3 °C 29.9 in /  1011.7 hPa NNE 8.1 mph /  13.0 km/h 8.1 mph /  13.0 km/h 44 % 0 in /  0.0 mm
15:33 70 °F /  21.1 °C 47.7 °F /  8.7 °C 29.9 in /  1011.7 hPa ENE 9.7 mph /  15.6 km/h 9.7 mph /  15.6 km/h 45 % 0 in /  0.0 mm
15:38 70.2 °F /  21.2 °C 48.4 °F /  9.1 °C 29.9 in /  1011.7 hPa East 10.4 mph /  16.7 km/h 10.4 mph /  16.7 km/h 46 % 0 in /  0.0 mm
15:43 69.8 °F /  21.0 °C 48 °F /  8.9 °C 29.9 in /  1011.7 hPa ESE 13.5 mph /  21.7 km/h 13.5 mph /  21.7 km/h 46 % 0 in /  0.0 mm
15:48 69.4 °F /  20.8 °C 48.9 °F /  9.4 °C 29.9 in /  1011.7 hPa SE 11.5 mph /  18.5 km/h 11.5 mph /  18.5 km/h 48 % 0 in /  0.0 mm
15:53 68.7 °F /  20.4 °C 48.7 °F /  9.3 °C 29.9 in /  1011.7 hPa ESE 11.5 mph /  18.5 km/h 11.5 mph /  18.5 km/h 49 % 0 in /  0.0 mm
15:58 68.7 °F /  20.4 °C 48.7 °F /  9.3 °C 29.9 in /  1011.7 hPa ESE 12.7 mph /  20.4 km/h 12.7 mph /  20.4 km/h 49 % 0 in /  0.0 mm
16:03 68.4 °F /  20.2 °C 48.6 °F /  9.2 °C 29.9 in /  1011.7 hPa SSE 12.7 mph /  20.4 km/h 12.7 mph /  20.4 km/h 49 % 0 in /  0.0 mm
16:08 68 °F /  20.0 °C 48.7 °F /  9.3 °C 29.9 in /  1011.7 hPa ESE 8.1 mph /  13.0 km/h 8.1 mph /  13.0 km/h 50 % 0 in /  0.0 mm
16:13 68.2 °F /  20.1 °C 48.7 °F /  9.3 °C 29.9 in /  1011.7 hPa ESE 13.8 mph /  22.2 km/h 13.8 mph /  22.2 km/h 50 % 0 in /  0.0 mm
16:18 67.8 °F /  19.9 °C 48.9 °F /  9.4 °C 29.9 in /  1011.7 hPa ENE 12.7 mph /  20.4 km/h 12.7 mph /  20.4 km/h 51 % 0 in /  0.0 mm
16:23 68 °F /  20.0 °C 49.6 °F /  9.8 °C 29.9 in /  1011.7 hPa East 11.5 mph /  18.5 km/h 11.5 mph /  18.5 km/h 52 % 0 in /  0.0 mm
16:28 68 °F /  20.0 °C 49.6 °F /  9.8 °C 29.9 in /  1011.7 hPa ENE 10.4 mph /  16.7 km/h 10.4 mph /  16.7 km/h 52 % 0 in /  0.0 mm
16:33 68 °F /  20.0 °C 49.6 °F /  9.8 °C 29.9 in /  1011.7 hPa ESE 9.2 mph /  14.8 km/h 9.2 mph /  14.8 km/h 52 % 0 in /  0.0 mm
16:38 67.8 °F /  19.9 °C 50.2 °F /  10.1 °C 29.9 in /  1011.7 hPa ESE 10.4 mph /  16.7 km/h 10.4 mph /  16.7 km/h 53 % 0 in /  0.0 mm
16:43 67.8 °F /  19.9 °C 50.2 °F /  10.1 °C 29.8 in /  1010.7 hPa ENE 8.1 mph /  13.0 km/h 8.1 mph /  13.0 km/h 53 % 0 in /  0.0 mm
16:48 68 °F /  20.0 °C 50.2 °F /  10.1 °C 29.8 in /  1010.7 hPa ESE 11.5 mph /  18.5 km/h 11.5 mph /  18.5 km/h 53 % 0 in /  0.0 mm
16:53 68.2 °F /  20.1 °C 50.4 °F /  10.2 °C 29.8 in /  1010.7 hPa ESE 6.9 mph /  11.1 km/h 6.9 mph /  11.1 km/h 53 % 0 in /  0.0 mm
16:58 68.2 °F /  20.1 °C 50.4 °F /  10.2 °C 29.9 in /  1011.7 hPa ESE 12.7 mph /  20.4 km/h 12.7 mph /  20.4 km/h 53 % 0 in /  0.0 mm
17:03 68.2 °F /  20.1 °C 50.9 °F /  10.5 °C 29.9 in /  1011.7 hPa ESE 8.1 mph /  13.0 km/h 8.1 mph /  13.0 km/h 54 % 0 in /  0.0 mm
17:08 68.2 °F /  20.1 °C 50.4 °F /  10.2 °C 29.9 in /  1011.7 hPa ENE 12.7 mph /  20.4 km/h 12.7 mph /  20.4 km/h 53 % 0 in /  0.0 mm
17:13 68 °F /  20.0 °C 50.2 °F /  10.1 °C 29.9 in /  1011.7 hPa East 11.5 mph /  18.5 km/h 11.5 mph /  18.5 km/h 53 % 0 in /  0.0 mm
17:18 67.8 °F /  19.9 °C 50.2 °F /  10.1 °C 29.9 in /  1011.7 hPa NE 10.4 mph /  16.7 km/h 10.4 mph /  16.7 km/h 53 % 0 in /  0.0 mm
17:23 68.2 °F /  20.1 °C 50.4 °F /  10.2 °C 29.9 in /  1011.7 hPa ESE 5.8 mph /  9.3 km/h 5.8 mph /  9.3 km/h 53 % 0 in /  0.0 mm
17:28 68 °F /  20.0 °C 50.2 °F /  10.1 °C 29.9 in /  1011.7 hPa ESE 6.9 mph /  11.1 km/h 6.9 mph /  11.1 km/h 53 % 0 in /  0.0 mm
17:33 67.6 °F /  19.8 °C 49.8 °F /  9.9 °C 29.9 in /  1011.7 hPa East 9.2 mph /  14.8 km/h 9.2 mph /  14.8 km/h 53 % 0 in /  0.0 mm
17:38 68.2 °F /  20.1 °C 50.4 °F /  10.2 °C 29.9 in /  1011.7 hPa ENE 11.5 mph /  18.5 km/h 11.5 mph /  18.5 km/h 53 % 0 in /  0.0 mm
17:43 67.3 °F /  19.6 °C 49.6 °F /  9.8 °C 29.8 in /  1010.7 hPa East 9.2 mph /  14.8 km/h 9.2 mph /  14.8 km/h 53 % 0 in /  0.0 mm
17:48 67.5 °F /  19.7 °C 49.3 °F /  9.6 °C 29.8 in /  1010.7 hPa NNW 8.1 mph /  13.0 km/h 8.1 mph /  13.0 km/h 52 % 0 in /  0.0 mm
17:53 67.3 °F /  19.6 °C 48.9 °F /  9.4 °C 29.8 in /  1010.7 hPa ENE 10.4 mph /  16.7 km/h 10.4 mph /  16.7 km/h 52 % 0 in /  0.0 mm
17:58 67.3 °F /  19.6 °C 48.9 °F /  9.4 °C 29.9 in /  1011.7 hPa ENE 9.2 mph /  14.8 km/h 9.2 mph /  14.8 km/h 52 % 0 in /  0.0 mm
18:03 66.9 °F /  19.4 °C 48.7 °F /  9.3 °C 29.9 in /  1011.7 hPa NNE 8.1 mph /  13.0 km/h 8.1 mph /  13.0 km/h 52 % 0 in /  0.0 mm
18:08 66.9 °F /  19.4 °C 48.7 °F /  9.3 °C 29.9 in /  1011.7 hPa ENE 6.9 mph /  11.1 km/h 6.9 mph /  11.1 km/h 52 % 0 in /  0.0 mm
18:13 66.7 °F /  19.3 °C 48 °F /  8.9 °C 29.9 in /  1011.7 hPa East 13.8 mph /  22.2 km/h 13.8 mph /  22.2 km/h 51 % 0 in /  0.0 mm
18:18 66.7 °F /  19.3 °C 48 °F /  8.9 °C 29.9 in /  1011.7 hPa ESE 8.1 mph /  13.0 km/h 8.1 mph /  13.0 km/h 51 % 0 in /  0.0 mm
18:23 66.4 °F /  19.1 °C 47.7 °F /  8.7 °C 29.9 in /  1011.7 hPa ENE 9.2 mph /  14.8 km/h 9.2 mph /  14.8 km/h 51 % 0 in /  0.0 mm
18:28 66.2 °F /  19.0 °C 47.5 °F /  8.6 °C 29.9 in /  1012.8 hPa NE 9.2 mph /  14.8 km/h 9.2 mph /  14.8 km/h 51 % 0 in /  0.0 mm
18:33 65.8 °F /  18.8 °C 47.7 °F /  8.7 °C 29.9 in /  1012.8 hPa East 10.9 mph /  17.5 km/h 10.9 mph /  17.5 km/h 52 % 0 in /  0.0 mm
18:38 65.7 °F /  18.7 °C 48 °F /  8.9 °C 29.9 in /  1012.8 hPa ENE 10.4 mph /  16.7 km/h 10.4 mph /  16.7 km/h 53 % 0 in /  0.0 mm
18:44 65.5 °F /  18.6 °C 48.4 °F /  9.1 °C 29.9 in /  1011.7 hPa ENE 6.9 mph /  11.1 km/h 6.9 mph /  11.1 km/h 54 % 0 in /  0.0 mm
18:49 65.7 °F /  18.7 °C 48.6 °F /  9.2 °C 29.9 in /  1011.7 hPa ESE 5.8 mph /  9.3 km/h 5.8 mph /  9.3 km/h 54 % 0 in /  0.0 mm
18:54 65.3 °F /  18.5 °C 48.7 °F /  9.3 °C 29.9 in /  1011.7 hPa ENE 12.7 mph /  20.4 km/h 12.7 mph /  20.4 km/h 55 % 0 in /  0.0 mm
18:59 65.1 °F /  18.4 °C 48.6 °F /  9.2 °C 29.8 in /  1010.7 hPa North 6 mph /  9.7 km/h 6 mph /  9.7 km/h 55 % 0 in /  0.0 mm
19:04 65.3 °F /  18.5 °C 49.3 °F /  9.6 °C 29.8 in /  1010.7 hPa ESE 6.9 mph /  11.1 km/h 7.4 mph /  11.9 km/h 56 % 0 in /  0.0 mm
19:09 65.1 °F /  18.4 °C 48.9 °F /  9.4 °C 29.8 in /  1010.7 hPa NE 6.9 mph /  11.1 km/h 6.9 mph /  11.1 km/h 56 % 0 in /  0.0 mm
19:14 65.1 °F /  18.4 °C 48.9 °F /  9.4 °C 29.8 in /  1010.7 hPa East 12.7 mph /  20.4 km/h 12.7 mph /  20.4 km/h 56 % 0 in /  0.0 mm
19:15 60.8 °F /  16.0 °C 44.4 °F /  6.9 °C 29.8 in /  1010.7 hPa NE 3 mph /  4.8 km/h 3 mph /  4.8 km/h 55 % 0 in /  0.0 mm
19:19 64.9 °F /  18.3 °C 48.4 °F /  9.1 °C 29.8 in /  1010.7 hPa ENE 10.4 mph /  16.7 km/h 10.4 mph /  16.7 km/h 55 % 0 in /  0.0 mm
19:24 64.9 °F /  18.3 °C 47.8 °F /  8.8 °C 29.8 in /  1010.7 hPa ENE 10.4 mph /  16.7 km/h 10.4 mph /  16.7 km/h 54 % 0 in /  0.0 mm
19:29 65.1 °F /  18.4 °C 48 °F /  8.9 °C 29.8 in /  1010.7 hPa ESE 5.9 mph /  9.5 km/h 5.9 mph /  9.5 km/h 54 % 0 in /  0.0 mm
19:34 64.9 °F /  18.3 °C 47.8 °F /  8.8 °C 29.8 in /  1010.7 hPa ESE 10.4 mph /  16.7 km/h 10.4 mph /  16.7 km/h 54 % 0 in /  0.0 mm
19:40 64.9 °F /  18.3 °C 47.8 °F /  8.8 °C 29.8 in /  1010.7 hPa East 6 mph /  9.7 km/h 10 mph /  16.1 km/h 54 % 0 in /  0.0 mm
19:45 64.8 °F /  18.2 °C 47.7 °F /  8.7 °C 29.8 in /  1010.7 hPa ENE 10.4 mph /  16.7 km/h 10.4 mph /  16.7 km/h 54 % 0 in /  0.0 mm
19:50 64.6 °F /  18.1 °C 47.7 °F /  8.7 °C 29.8 in /  1010.7 hPa ENE 5 mph /  8.0 km/h 7 mph /  11.3 km/h 54 % 0 in /  0.0 mm
19:55 64.2 °F /  17.9 °C 47.1 °F /  8.4 °C 29.8 in /  1010.7 hPa East 7.6 mph /  12.2 km/h 7.6 mph /  12.2 km/h 54 % 0 in /  0.0 mm
20:00 64.2 °F /  17.9 °C 46.8 °F /  8.2 °C 29.8 in /  1010.0 hPa ESE 10.4 mph /  16.7 km/h 10.4 mph /  16.7 km/h 53 % 0 in /  0.0 mm
20:05 63.9 °F /  17.7 °C 46.4 °F /  8.0 °C 29.8 in /  1010.0 hPa ENE 9.2 mph /  14.8 km/h 9.2 mph /  14.8 km/h 53 % 0 in /  0.0 mm
20:10 63.9 °F /  17.7 °C 46.4 °F /  8.0 °C 29.8 in /  1010.0 hPa East 8.1 mph /  13.0 km/h 8.1 mph /  13.0 km/h 53 % 0 in /  0.0 mm
20:15 63.7 °F /  17.6 °C 46.2 °F /  7.9 °C 29.8 in /  1010.0 hPa ENE 6 mph /  9.7 km/h 10 mph /  16.1 km/h 53 % 0 in /  0.0 mm
20:20 63.7 °F /  17.6 °C 46.2 °F /  7.9 °C 29.8 in /  1010.0 hPa NE 6.9 mph /  11.1 km/h 6.9 mph /  11.1 km/h 53 % 0 in /  0.0 mm
20:25 63.7 °F /  17.6 °C 46.2 °F /  7.9 °C 29.8 in /  1010.0 hPa East 8.1 mph /  13.0 km/h 8.1 mph /  13.0 km/h 53 % 0 in /  0.0 mm
20:30 63.5 °F /  17.5 °C 46 °F /  7.8 °C 29.8 in /  1010.0 hPa ESE 3.5 mph /  5.6 km/h 3.5 mph /  5.6 km/h 53 % 0 in /  0.0 mm
20:35 63.3 °F /  17.4 °C 45.9 °F /  7.7 °C 29.8 in /  1010.0 hPa ESE 5.8 mph /  9.3 km/h 5.8 mph /  9.3 km/h 53 % 0 in /  0.0 mm
20:40 63.3 °F /  17.4 °C 45.9 °F /  7.7 °C 29.8 in /  1010.0 hPa ENE 4.7 mph /  7.6 km/h 4.7 mph /  7.6 km/h 53 % 0 in /  0.0 mm
20:45 63.3 °F /  17.4 °C 45.3 °F /  7.4 °C 29.8 in /  1010.0 hPa ESE 6.9 mph /  11.1 km/h 6.9 mph /  11.1 km/h 52 % 0 in /  0.0 mm
20:50 63.1 °F /  17.3 °C 45.1 °F /  7.3 °C 29.8 in /  1010.0 hPa East 7.4 mph /  11.9 km/h 7.4 mph /  11.9 km/h 52 % 0 in /  0.0 mm
20:55 63.1 °F /  17.3 °C 45.1 °F /  7.3 °C 29.8 in /  1010.0 hPa East 6.9 mph /  11.1 km/h 6.9 mph /  11.1 km/h 52 % 0 in /  0.0 mm
21:00 63 °F /  17.2 °C 45.1 °F /  7.3 °C 29.8 in /  1010.7 hPa East 5.8 mph /  9.3 km/h 5.8 mph /  9.3 km/h 52 % 0 in /  0.0 mm
21:05 62.8 °F /  17.1 °C 45 °F /  7.2 °C 29.8 in /  1010.7 hPa ENE 4.6 mph /  7.4 km/h 4.6 mph /  7.4 km/h 52 % 0 in /  0.0 mm
21:10 62.8 °F /  17.1 °C 45 °F /  7.2 °C 29.8 in /  1010.7 hPa ENE 6.2 mph /  10.0 km/h 6.2 mph /  10.0 km/h 52 % 0 in /  0.0 mm
21:15 62.6 °F /  17.0 °C 44.8 °F /  7.1 °C 29.8 in /  1010.0 hPa NNE 5.8 mph /  9.3 km/h 5.8 mph /  9.3 km/h 52 % 0 in /  0.0 mm
21:21 62.8 °F /  17.1 °C 44.4 °F /  6.9 °C 29.8 in /  1010.0 hPa NNE 4.6 mph /  7.4 km/h 4.6 mph /  7.4 km/h 51 % 0 in /  0.0 mm
21:25 58.8 °F /  14.9 °C 45.3 °F /  7.4 °C 29.8 in /  1010.0 hPa Calm   3 mph /  4.8 km/h 61 % 0 in /  0.0 mm
21:26 62.8 °F /  17.1 °C 44.4 °F /  6.9 °C 29.8 in /  1010.0 hPa ENE 4.6 mph /  7.4 km/h 4.6 mph /  7.4 km/h 51 % 0 in /  0.0 mm
21:31 62.6 °F /  17.0 °C 44.2 °F /  6.8 °C 29.8 in /  1010.7 hPa NE 4.6 mph /  7.4 km/h 4.6 mph /  7.4 km/h 51 % 0 in /  0.0 mm
21:35 58.6 °F /  14.8 °C 45.1 °F /  7.3 °C 29.8 in /  1010.0 hPa Calm     61 % 0 in /  0.0 mm
21:36 62.4 °F /  16.9 °C 44.6 °F /  7.0 °C 29.8 in /  1010.7 hPa NNE 6.2 mph /  10.0 km/h 6.2 mph /  10.0 km/h 52 % 0 in /  0.0 mm
21:41 62.4 °F /  16.9 °C 44.6 °F /  7.0 °C 29.9 in /  1011.7 hPa NNE 5.8 mph /  9.3 km/h 5.8 mph /  9.3 km/h 52 % 0 in /  0.0 mm
21:45 58.5 °F /  14.7 °C 45.1 °F /  7.3 °C 29.8 in /  1010.0 hPa SW 1 mph /  1.6 km/h 2 mph /  3.2 km/h 61 % 0 in /  0.0 mm
21:46 62.2 °F /  16.8 °C 45 °F /  7.2 °C 29.9 in /  1011.7 hPa NE 5.8 mph /  9.3 km/h 5.8 mph /  9.3 km/h 53 % 0 in /  0.0 mm
21:52 62.1 °F /  16.7 °C 44.8 °F /  7.1 °C 29.9 in /  1011.7 hPa NNE 5.8 mph /  9.3 km/h 5.8 mph /  9.3 km/h 53 % 0 in /  0.0 mm
21:55 58.5 °F /  14.7 °C 45.5 °F /  7.5 °C 29.8 in /  1010.0 hPa Calm   1 mph /  1.6 km/h 62 % 0 in /  0.0 mm
21:57 61.9 °F /  16.6 °C 44.6 °F /  7.0 °C 29.9 in /  1011.7 hPa NE 5.8 mph /  9.3 km/h 5.8 mph /  9.3 km/h 53 % 0 in /  0.0 mm
22:02 61.7 °F /  16.5 °C 44.4 °F /  6.9 °C 29.9 in /  1011.7 hPa NNE 3.5 mph /  5.6 km/h 3.5 mph /  5.6 km/h 53 % 0 in /  0.0 mm
22:05 58.3 °F /  14.6 °C 45.3 °F /  7.4 °C 29.8 in /  1010.0 hPa Calm   2 mph /  3.2 km/h 62 % 0 in /  0.0 mm
22:07 61.7 °F /  16.5 °C 45 °F /  7.2 °C 29.9 in /  1011.7 hPa NNE 5.8 mph /  9.3 km/h 5.8 mph /  9.3 km/h 54 % 0 in /  0.0 mm
22:12 61.7 °F /  16.5 °C 45 °F /  7.2 °C 29.9 in /  1011.7 hPa NNW 5.8 mph /  9.3 km/h 5.8 mph /  9.3 km/h 54 % 0 in /  0.0 mm
22:15 58.3 °F /  14.6 °C 45.3 °F /  7.4 °C 29.8 in /  1010.0 hPa WNW 2 mph /  3.2 km/h 2 mph /  3.2 km/h 62 % 0 in /  0.0 mm
22:17 61.5 °F /  16.4 °C 44.8 °F /  7.1 °C 29.9 in /  1011.7 hPa NE 5.8 mph /  9.3 km/h 5.8 mph /  9.3 km/h 54 % 0 in /  0.0 mm
22:22 61.3 °F /  16.3 °C 45 °F /  7.2 °C 29.9 in /  1011.7 hPa ENE 5.9 mph /  9.5 km/h 5.9 mph /  9.5 km/h 55 % 0 in /  0.0 mm
22:25 58.1 °F /  14.5 °C 45.7 °F /  7.6 °C 29.8 in /  1010.0 hPa Calm   1 mph /  1.6 km/h 63 % 0 in /  0.0 mm
22:28 61.2 °F /  16.2 °C 45 °F /  7.2 °C 29.8 in /  1010.7 hPa NNE 5.8 mph /  9.3 km/h 5.8 mph /  9.3 km/h 55 % 0 in /  0.0 mm
22:33 61 °F /  16.1 °C 44.8 °F /  7.1 °C 29.8 in /  1010.7 hPa NNE 7.4 mph /  11.9 km/h 7.4 mph /  11.9 km/h 55 % 0 in /  0.0 mm
22:35 57.7 °F /  14.3 °C 45.1 °F /  7.3 °C 29.8 in /  1010.0 hPa Calm   1 mph /  1.6 km/h 63 % 0 in /  0.0 mm
22:38 61 °F /  16.1 °C 44.8 °F /  7.1 °C 29.8 in /  1010.7 hPa East 3.5 mph /  5.6 km/h 3.5 mph /  5.6 km/h 55 % 0 in /  0.0 mm
22:43 61 °F /  16.1 °C 44.8 °F /  7.1 °C 29.9 in /  1011.7 hPa ENE 4.6 mph /  7.4 km/h 4.6 mph /  7.4 km/h 55 % 0 in /  0.0 mm
22:45 57.6 °F /  14.2 °C 45.1 °F /  7.3 °C 29.8 in /  1010.0 hPa West 1 mph /  1.6 km/h 2 mph /  3.2 km/h 63 % 0 in /  0.0 mm
22:48 61.2 °F /  16.2 °C 45.3 °F /  7.4 °C 29.9 in /  1011.7 hPa NE 3.5 mph /  5.6 km/h 3.5 mph /  5.6 km/h 56 % 0 in /  0.0 mm
22:54 61.2 °F /  16.2 °C 45.3 °F /  7.4 °C 29.9 in /  1011.7 hPa NNE 4.3 mph /  6.9 km/h 4.3 mph /  6.9 km/h 56 % 0 in /  0.0 mm
22:55 57.4 °F /  14.1 °C 45 °F /  7.2 °C 29.8 in /  1010.0 hPa West 1 mph /  1.6 km/h 2 mph /  3.2 km/h 63 % 0 in /  0.0 mm
22:59 61.2 °F /  16.2 °C 45 °F /  7.2 °C 29.9 in /  1011.7 hPa ENE 5.8 mph /  9.3 km/h 5.8 mph /  9.3 km/h 55 % 0 in /  0.0 mm
23:04 61.2 °F /  16.2 °C 45 °F /  7.2 °C 29.9 in /  1011.7 hPa ENE 4.6 mph /  7.4 km/h 4.6 mph /  7.4 km/h 55 % 0 in /  0.0 mm
23:05 57.2 °F /  14.0 °C 44.8 °F /  7.1 °C 29.8 in /  1010.0 hPa West 1 mph /  1.6 km/h 2 mph /  3.2 km/h 63 % 0 in /  0.0 mm
23:09 61.2 °F /  16.2 °C 45 °F /  7.2 °C 29.9 in /  1011.7 hPa NE 5.9 mph /  9.5 km/h 5.9 mph /  9.5 km/h 55 % 0 in /  0.0 mm
23:14 61 °F /  16.1 °C 44.8 °F /  7.1 °C 29.8 in /  1010.7 hPa NNE 5.8 mph /  9.3 km/h 5.8 mph /  9.3 km/h 55 % 0 in /  0.0 mm
23:15 57.2 °F /  14.0 °C 45.1 °F /  7.3 °C 29.8 in /  1010.0 hPa West 1 mph /  1.6 km/h 2 mph /  3.2 km/h 64 % 0 in /  0.0 mm
23:19 60.8 °F /  16.0 °C 44.4 °F /  6.9 °C 29.8 in /  1010.7 hPa NE 4.6 mph /  7.4 km/h 4.6 mph /  7.4 km/h 55 % 0 in /  0.0 mm
23:24 60.8 °F /  16.0 °C 44.4 °F /  6.9 °C 29.8 in /  1010.7 hPa ENE 6.9 mph /  11.1 km/h 6.9 mph /  11.1 km/h 55 % 0 in /  0.0 mm
23:25 56.7 °F /  13.7 °C 44.6 °F /  7.0 °C 29.8 in /  1009.0 hPa WSW 2 mph /  3.2 km/h 2 mph /  3.2 km/h 64 % 0 in /  0.0 mm
23:29 60.8 °F /  16.0 °C 44.4 °F /  6.9 °C 29.8 in /  1010.7 hPa NNE 4.7 mph /  7.6 km/h 4.7 mph /  7.6 km/h 55 % 0 in /  0.0 mm
23:34 60.8 °F /  16.0 °C 44.4 °F /  6.9 °C 29.8 in /  1010.7 hPa ESE 4.6 mph /  7.4 km/h 4.6 mph /  7.4 km/h 55 % 0 in /  0.0 mm
23:35 55.9 °F /  13.3 °C 44.2 °F /  6.8 °C 29.8 in /  1010.0 hPa Calm   2 mph /  3.2 km/h 65 % 0 in /  0.0 mm
23:39 60.8 °F /  16.0 °C 44.4 °F /  6.9 °C 29.8 in /  1010.7 hPa NNE 3.6 mph /  5.8 km/h 3.6 mph /  5.8 km/h 55 % 0 in /  0.0 mm
23:44 60.8 °F /  16.0 °C 44.4 °F /  6.9 °C 29.8 in /  1010.7 hPa NNE 5.8 mph /  9.3 km/h 5.8 mph /  9.3 km/h 55 % 0 in /  0.0 mm
23:45 55.8 °F /  13.2 °C 44.6 °F /  7.0 °C 29.8 in /  1010.0 hPa SW 2 mph /  3.2 km/h 2 mph /  3.2 km/h 66 % 0 in /  0.0 mm
23:49 60.8 °F /  16.0 °C 44.4 °F /  6.9 °C 29.8 in /  1010.7 hPa NE 4.6 mph /  7.4 km/h 4.6 mph /  7.4 km/h 55 % 0 in /  0.0 mm
23:54 60.8 °F /  16.0 °C 44.4 °F /  6.9 °C 29.8 in /  1010.7 hPa NNE 3.6 mph /  5.8 km/h 3.6 mph /  5.8 km/h 55 % 0 in /  0.0 mm
23:55 56.1 °F /  13.4 °C 45 °F /  7.2 °C 29.8 in /  1010.0 hPa SW 2 mph /  3.2 km/h 3 mph /  4.8 km/h 66 % 0 in /  0.0 mm
23:59 60.8 °F /  16.0 °C 44.4 °F /  6.9 °C 29.8 in /  1010.7 hPa NE 4.6 mph /  7.4 km/h 4.6 mph /  7.4 km/h 55 % 0 in /  0.0 mm
Meteo Sesrovires
Elogis d' Weather Underground - 3.5 mb

Guio original per  Jim McMurry - jmcmurry@mwt.net Adaptat per a la plantilla per  Wim van der Kuil - Leuven-Template.eu

Trobareu la nostra informacio del temps tambe a:

Weather Underground

AWEKAS